sensor_id;sensor_type;location;lat;lon;timestamp;pressure;altitude;pressure_sealevel;temperature;humidity
23433;BME280;41331;45.412;10.992;2023-04-25T00:02:04;100179.03;;;14.43;83.06
23433;BME280;41331;45.412;10.992;2023-04-25T00:04:32;100173.91;;;14.41;83.04
23433;BME280;41331;45.412;10.992;2023-04-25T00:07:01;100178.41;;;14.49;82.15
23433;BME280;41331;45.412;10.992;2023-04-25T00:09:28;100174.75;;;14.45;81.93
23433;BME280;41331;45.412;10.992;2023-04-25T00:11:55;100182.41;;;14.36;83.05
23433;BME280;41331;45.412;10.992;2023-04-25T00:14:22;100182.63;;;14.28;85.05
23433;BME280;41331;45.412;10.992;2023-04-25T00:16:49;100170.41;;;14.41;84.17
23433;BME280;41331;45.412;10.992;2023-04-25T00:19:18;100167.38;;;14.46;84.95
23433;BME280;41331;45.412;10.992;2023-04-25T00:21:45;100157.84;;;14.40;86.75
23433;BME280;41331;45.412;10.992;2023-04-25T00:24:13;100158.41;;;14.30;87.73
23433;BME280;41331;45.412;10.992;2023-04-25T00:26:40;100167.84;;;14.32;87.90
23433;BME280;41331;45.412;10.992;2023-04-25T00:29:07;100165.19;;;14.16;90.45
23433;BME280;41331;45.412;10.992;2023-04-25T00:31:35;100165.91;;;14.13;91.14
23433;BME280;41331;45.412;10.992;2023-04-25T00:34:02;100161.13;;;14.10;91.55
23433;BME280;41331;45.412;10.992;2023-04-25T00:36:29;100157.81;;;14.20;89.66
23433;BME280;41331;45.412;10.992;2023-04-25T00:38:56;100158.63;;;14.21;89.32
23433;BME280;41331;45.412;10.992;2023-04-25T00:41:24;100151.78;;;14.11;90.02
23433;BME280;41331;45.412;10.992;2023-04-25T00:43:52;100150.03;;;14.03;91.98
23433;BME280;41331;45.412;10.992;2023-04-25T00:46:20;100149.75;;;14.08;90.93
23433;BME280;41331;45.412;10.992;2023-04-25T00:48:47;100145.63;;;13.98;92.05
23433;BME280;41331;45.412;10.992;2023-04-25T00:51:16;100148.88;;;14.04;91.98
23433;BME280;41331;45.412;10.992;2023-04-25T00:53:46;100137.94;;;14.04;92.91
23433;BME280;41331;45.412;10.992;2023-04-25T00:56:14;100139.94;;;13.88;90.91
23433;BME280;41331;45.412;10.992;2023-04-25T00:58:41;100138.53;;;14.13;89.57
23433;BME280;41331;45.412;10.992;2023-04-25T01:01:10;100133.06;;;14.13;88.94
23433;BME280;41331;45.412;10.992;2023-04-25T01:03:38;100125.84;;;14.05;88.62
23433;BME280;41331;45.412;10.992;2023-04-25T01:06:10;100124.47;;;14.15;87.13
23433;BME280;41331;45.412;10.992;2023-04-25T01:08:38;100126.06;;;13.96;90.67
23433;BME280;41331;45.412;10.992;2023-04-25T01:11:05;100121.53;;;14.04;89.78
23433;BME280;41331;45.412;10.992;2023-04-25T01:13:33;100131.44;;;13.93;90.21
23433;BME280;41331;45.412;10.992;2023-04-25T01:16:01;100137.47;;;13.83;91.63
23433;BME280;41331;45.412;10.992;2023-04-25T01:18:28;100132.22;;;13.74;91.22
23433;BME280;41331;45.412;10.992;2023-04-25T01:20:56;100128.03;;;13.80;90.66
23433;BME280;41331;45.412;10.992;2023-04-25T01:23:25;100124.03;;;13.93;88.82
23433;BME280;41331;45.412;10.992;2023-04-25T01:25:52;100122.53;;;14.15;86.72
23433;BME280;41331;45.412;10.992;2023-04-25T01:28:20;100118.00;;;14.04;85.90
23433;BME280;41331;45.412;10.992;2023-04-25T01:30:48;100118.66;;;13.97;85.79
23433;BME280;41331;45.412;10.992;2023-04-25T01:33:16;100124.53;;;13.99;85.68
23433;BME280;41331;45.412;10.992;2023-04-25T01:35:44;100122.88;;;13.94;86.26
23433;BME280;41331;45.412;10.992;2023-04-25T01:38:12;100118.19;;;13.95;86.16
23433;BME280;41331;45.412;10.992;2023-04-25T01:40:39;100124.69;;;13.87;86.59
23433;BME280;41331;45.412;10.992;2023-04-25T01:43:07;100124.34;;;14.08;85.42
23433;BME280;41331;45.412;10.992;2023-04-25T01:45:38;100130.81;;;14.19;83.66
23433;BME280;41331;45.412;10.992;2023-04-25T01:48:10;100126.28;;;14.07;85.38
23433;BME280;41331;45.412;10.992;2023-04-25T01:50:38;100124.72;;;14.06;85.78
23433;BME280;41331;45.412;10.992;2023-04-25T01:53:05;100118.47;;;13.90;86.99
23433;BME280;41331;45.412;10.992;2023-04-25T01:55:33;100121.59;;;13.88;87.59
23433;BME280;41331;45.412;10.992;2023-04-25T01:58:05;100123.16;;;13.89;87.00
23433;BME280;41331;45.412;10.992;2023-04-25T02:00:55;100119.00;;;13.95;87.06
23433;BME280;41331;45.412;10.992;2023-04-25T02:03:25;100111.16;;;13.94;86.53
23433;BME280;41331;45.412;10.992;2023-04-25T02:05:53;100102.53;;;13.92;85.51
23433;BME280;41331;45.412;10.992;2023-04-25T02:08:21;100102.53;;;13.92;84.78
23433;BME280;41331;45.412;10.992;2023-04-25T02:10:48;100089.69;;;14.15;83.72
23433;BME280;41331;45.412;10.992;2023-04-25T02:13:18;100100.09;;;14.06;84.52
23433;BME280;41331;45.412;10.992;2023-04-25T02:16:00;100083.13;;;14.20;82.08
23433;BME280;41331;45.412;10.992;2023-04-25T02:18:29;100080.84;;;14.22;81.35
23433;BME280;41331;45.412;10.992;2023-04-25T02:20:57;100077.75;;;14.04;82.84
23433;BME280;41331;45.412;10.992;2023-04-25T02:23:24;100066.78;;;14.04;83.23
23433;BME280;41331;45.412;10.992;2023-04-25T02:25:51;100062.63;;;13.91;84.00
23433;BME280;41331;45.412;10.992;2023-04-25T02:28:19;100064.06;;;14.04;82.89
23433;BME280;41331;45.412;10.992;2023-04-25T02:30:46;100058.69;;;14.31;80.59
23433;BME280;41331;45.412;10.992;2023-04-25T02:33:13;100056.31;;;14.06;80.43
23433;BME280;41331;45.412;10.992;2023-04-25T02:35:43;100065.44;;;13.94;82.10
23433;BME280;41331;45.412;10.992;2023-04-25T02:38:11;100075.94;;;13.92;84.35
23433;BME280;41331;45.412;10.992;2023-04-25T02:40:39;100069.97;;;13.87;83.37
23433;BME280;41331;45.412;10.992;2023-04-25T02:43:07;100082.56;;;13.72;83.94
23433;BME280;41331;45.412;10.992;2023-04-25T02:45:35;100074.97;;;13.65;84.69
23433;BME280;41331;45.412;10.992;2023-04-25T02:48:02;100069.25;;;13.70;85.70
23433;BME280;41331;45.412;10.992;2023-04-25T02:50:31;100068.72;;;13.84;85.84
23433;BME280;41331;45.412;10.992;2023-04-25T02:52:59;100056.50;;;13.97;82.89
23433;BME280;41331;45.412;10.992;2023-04-25T02:55:33;100043.22;;;14.38;77.80
23433;BME280;41331;45.412;10.992;2023-04-25T02:58:02;100039.19;;;14.52;76.14
23433;BME280;41331;45.412;10.992;2023-04-25T03:00:39;100036.25;;;14.41;75.41
23433;BME280;41331;45.412;10.992;2023-04-25T03:03:06;100039.19;;;14.32;74.77
23433;BME280;41331;45.412;10.992;2023-04-25T03:05:33;100031.78;;;14.33;75.07
23433;BME280;41331;45.412;10.992;2023-04-25T03:08:00;100032.75;;;14.21;75.84
23433;BME280;41331;45.412;10.992;2023-04-25T03:10:28;100030.19;;;14.32;74.97
23433;BME280;41331;45.412;10.992;2023-04-25T03:13:00;100027.91;;;14.14;76.45
23433;BME280;41331;45.412;10.992;2023-04-25T03:15:27;100033.53;;;14.02;77.13
23433;BME280;41331;45.412;10.992;2023-04-25T03:17:54;100036.34;;;14.06;78.63
23433;BME280;41331;45.412;10.992;2023-04-25T03:20:23;100042.84;;;13.97;81.32
23433;BME280;41331;45.412;10.992;2023-04-25T03:22:50;100053.28;;;13.92;80.78
23433;BME280;41331;45.412;10.992;2023-04-25T03:25:17;100064.00;;;13.81;81.94
23433;BME280;41331;45.412;10.992;2023-04-25T03:27:45;100067.88;;;13.80;84.75
23433;BME280;41331;45.412;10.992;2023-04-25T03:30:12;100075.56;;;13.74;85.85
23433;BME280;41331;45.412;10.992;2023-04-25T03:32:42;100077.38;;;13.86;85.16
23433;BME280;41331;45.412;10.992;2023-04-25T03:35:09;100076.66;;;13.89;85.34
23433;BME280;41331;45.412;10.992;2023-04-25T03:37:36;100075.88;;;13.89;82.63
23433;BME280;41331;45.412;10.992;2023-04-25T03:40:03;100071.19;;;14.09;79.79
23433;BME280;41331;45.412;10.992;2023-04-25T03:42:51;100063.44;;;14.11;78.67
23433;BME280;41331;45.412;10.992;2023-04-25T03:45:18;100066.28;;;13.98;78.62
23433;BME280;41331;45.412;10.992;2023-04-25T03:47:45;100070.19;;;13.97;79.87
23433;BME280;41331;45.412;10.992;2023-04-25T03:50:13;100065.44;;;13.94;80.36
23433;BME280;41331;45.412;10.992;2023-04-25T03:52:40;100058.09;;;14.18;78.14
23433;BME280;41331;45.412;10.992;2023-04-25T03:55:08;100054.94;;;14.16;76.75
23433;BME280;41331;45.412;10.992;2023-04-25T03:57:36;100055.16;;;14.07;77.06
23433;BME280;41331;45.412;10.992;2023-04-25T04:00:03;100055.56;;;13.90;77.90
23433;BME280;41331;45.412;10.992;2023-04-25T04:02:39;100065.94;;;14.00;77.21
23433;BME280;41331;45.412;10.992;2023-04-25T04:05:10;100067.75;;;13.92;78.45
23433;BME280;41331;45.412;10.992;2023-04-25T04:07:43;100073.78;;;13.82;78.70
23433;BME280;41331;45.412;10.992;2023-04-25T04:10:12;100072.41;;;13.92;78.29
23433;BME280;41331;45.412;10.992;2023-04-25T04:12:40;100079.47;;;13.93;77.25
23433;BME280;41331;45.412;10.992;2023-04-25T04:15:07;100073.00;;;14.01;76.31
23433;BME280;41331;45.412;10.992;2023-04-25T04:17:35;100071.06;;;14.02;76.35
23433;BME280;41331;45.412;10.992;2023-04-25T04:20:03;100066.59;;;13.93;76.71
23433;BME280;41331;45.412;10.992;2023-04-25T04:22:31;100073.91;;;13.89;76.35
23433;BME280;41331;45.412;10.992;2023-04-25T04:25:03;100068.94;;;13.95;76.14
23433;BME280;41331;45.412;10.992;2023-04-25T04:27:51;100075.16;;;13.92;76.37
23433;BME280;41331;45.412;10.992;2023-04-25T04:30:33;100074.00;;;13.93;76.21
23433;BME280;41331;45.412;10.992;2023-04-25T04:33:05;100066.09;;;14.07;76.06
23433;BME280;41331;45.412;10.992;2023-04-25T04:35:33;100052.91;;;14.13;76.56
23433;BME280;41331;45.412;10.992;2023-04-25T04:38:00;100049.09;;;13.98;76.77
23433;BME280;41331;45.412;10.992;2023-04-25T04:40:32;100045.66;;;14.01;75.84
23433;BME280;41331;45.412;10.992;2023-04-25T04:43:25;100043.34;;;14.03;76.42
23433;BME280;41331;45.412;10.992;2023-04-25T04:46:19;100044.78;;;13.97;77.65
23433;BME280;41331;45.412;10.992;2023-04-25T04:48:57;100063.63;;;14.02;76.71
23433;BME280;41331;45.412;10.992;2023-04-25T04:51:48;100068.81;;;14.07;75.94
23433;BME280;41331;45.412;10.992;2023-04-25T04:54:54;100068.41;;;13.86;77.19
23433;BME280;41331;45.412;10.992;2023-04-25T04:57:44;100070.03;;;13.90;77.37
23433;BME280;41331;45.412;10.992;2023-04-25T05:00:11;100086.66;;;13.82;78.46
23433;BME280;41331;45.412;10.992;2023-04-25T05:02:55;100114.72;;;13.79;79.80
23433;BME280;41331;45.412;10.992;2023-04-25T05:05:41;100151.59;;;13.85;78.79
23433;BME280;41331;45.412;10.992;2023-04-25T05:08:35;100175.00;;;13.82;77.89
23433;BME280;41331;45.412;10.992;2023-04-25T05:11:13;100192.66;;;13.69;76.76
23433;BME280;41331;45.412;10.992;2023-04-25T05:13:59;100210.28;;;13.87;74.63
23433;BME280;41331;45.412;10.992;2023-04-25T05:16:44;100241.28;;;13.76;76.39
23433;BME280;41331;45.412;10.992;2023-04-25T05:19:35;100267.44;;;12.08;84.35
23433;BME280;41331;45.412;10.992;2023-04-25T05:22:37;100253.91;;;11.05;87.89
23433;BME280;41331;45.412;10.992;2023-04-25T05:25:27;100233.63;;;10.61;88.13
23433;BME280;41331;45.412;10.992;2023-04-25T05:28:04;100245.00;;;10.12;92.06
23433;BME280;41331;45.412;10.992;2023-04-25T05:30:56;100261.31;;;10.12;94.72
23433;BME280;41331;45.412;10.992;2023-04-25T05:33:30;100256.78;;;10.25;96.05
23433;BME280;41331;45.412;10.992;2023-04-25T05:35:58;100250.38;;;10.21;96.54
23433;BME280;41331;45.412;10.992;2023-04-25T05:38:26;100237.56;;;10.30;96.41
23433;BME280;41331;45.412;10.992;2023-04-25T05:41:12;100246.38;;;10.27;97.49
23433;BME280;41331;45.412;10.992;2023-04-25T05:44:01;100235.28;;;10.32;99.55
23433;BME280;41331;45.412;10.992;2023-04-25T05:46:35;100214.72;;;10.44;100.00
23433;BME280;41331;45.412;10.992;2023-04-25T05:49:11;100200.81;;;10.45;100.00
23433;BME280;41331;45.412;10.992;2023-04-25T05:52:11;100196.84;;;10.76;100.00
23433;BME280;41331;45.412;10.992;2023-04-25T05:54:46;100186.91;;;10.92;100.00
23433;BME280;41331;45.412;10.992;2023-04-25T05:57:20;100187.13;;;10.99;100.00
23433;BME280;41331;45.412;10.992;2023-04-25T05:59:48;100188.41;;;11.14;100.00
23433;BME280;41331;45.412;10.992;2023-04-25T06:02:16;100182.31;;;11.17;100.00
23433;BME280;41331;45.412;10.992;2023-04-25T06:04:43;100189.34;;;11.18;100.00
23433;BME280;41331;45.412;10.992;2023-04-25T06:07:11;100197.97;;;11.20;100.00
23433;BME280;41331;45.412;10.992;2023-04-25T06:09:38;100195.50;;;11.27;100.00
23433;BME280;41331;45.412;10.992;2023-04-25T06:12:06;100190.16;;;11.31;100.00
23433;BME280;41331;45.412;10.992;2023-04-25T06:14:34;100193.91;;;11.38;100.00
23433;BME280;41331;45.412;10.992;2023-04-25T06:17:02;100197.22;;;11.56;100.00
23433;BME280;41331;45.412;10.992;2023-04-25T06:19:33;100200.28;;;11.43;100.00
23433;BME280;41331;45.412;10.992;2023-04-25T06:22:01;100208.34;;;11.51;100.00
23433;BME280;41331;45.412;10.992;2023-04-25T06:24:30;100201.53;;;11.57;100.00
23433;BME280;41331;45.412;10.992;2023-04-25T06:26:57;100197.88;;;11.53;100.00
23433;BME280;41331;45.412;10.992;2023-04-25T06:29:25;100194.28;;;11.61;100.00
23433;BME280;41331;45.412;10.992;2023-04-25T06:31:52;100184.13;;;11.74;100.00
23433;BME280;41331;45.412;10.992;2023-04-25T06:34:21;100181.66;;;11.81;100.00
23433;BME280;41331;45.412;10.992;2023-04-25T06:36:48;100185.53;;;11.80;100.00
23433;BME280;41331;45.412;10.992;2023-04-25T06:39:16;100183.00;;;12.00;100.00
23433;BME280;41331;45.412;10.992;2023-04-25T06:41:43;100185.25;;;12.22;100.00
23433;BME280;41331;45.412;10.992;2023-04-25T06:44:30;100183.22;;;12.07;100.00
23433;BME280;41331;45.412;10.992;2023-04-25T06:46:58;100180.94;;;12.21;100.00
23433;BME280;41331;45.412;10.992;2023-04-25T06:49:25;100184.03;;;12.07;100.00
23433;BME280;41331;45.412;10.992;2023-04-25T06:51:53;100179.66;;;12.18;100.00
23433;BME280;41331;45.412;10.992;2023-04-25T06:54:20;100172.81;;;12.37;100.00
23433;BME280;41331;45.412;10.992;2023-04-25T06:56:59;100157.75;;;12.43;99.96
23433;BME280;41331;45.412;10.992;2023-04-25T06:59:28;100143.72;;;12.29;100.00
23433;BME280;41331;45.412;10.992;2023-04-25T07:01:55;100138.56;;;12.67;95.43
23433;BME280;41331;45.412;10.992;2023-04-25T07:04:25;100147.50;;;12.96;93.48
23433;BME280;41331;45.412;10.992;2023-04-25T07:06:55;100149.34;;;13.08;95.03
23433;BME280;41331;45.412;10.992;2023-04-25T07:09:31;100153.59;;;13.53;88.09
23433;BME280;41331;45.412;10.992;2023-04-25T07:12:00;100149.97;;;13.64;89.63
23433;BME280;41331;45.412;10.992;2023-04-25T07:14:28;100144.59;;;13.52;88.53
23433;BME280;41331;45.412;10.992;2023-04-25T07:16:56;100143.44;;;13.53;87.82
23433;BME280;41331;45.412;10.992;2023-04-25T07:19:25;100145.66;;;13.16;89.80
23433;BME280;41331;45.412;10.992;2023-04-25T07:21:56;100153.75;;;13.12;86.72
23433;BME280;41331;45.412;10.992;2023-04-25T07:24:23;100163.94;;;12.84;87.38
23433;BME280;41331;45.412;10.992;2023-04-25T07:26:53;100155.94;;;12.75;89.53
23433;BME280;41331;45.412;10.992;2023-04-25T07:29:34;100142.94;;;12.56;90.09
23433;BME280;41331;45.412;10.992;2023-04-25T07:32:04;100127.56;;;12.36;93.56
23433;BME280;41331;45.412;10.992;2023-04-25T07:34:31;100127.69;;;12.27;94.39
23433;BME280;41331;45.412;10.992;2023-04-25T07:36:59;100139.91;;;12.17;94.82
23433;BME280;41331;45.412;10.992;2023-04-25T07:39:33;100143.22;;;12.11;93.32
23433;BME280;41331;45.412;10.992;2023-04-25T07:42:00;100144.25;;;11.94;95.99
23433;BME280;41331;45.412;10.992;2023-04-25T07:44:29;100144.03;;;11.99;97.68
23433;BME280;41331;45.412;10.992;2023-04-25T07:47:06;100143.53;;;12.09;97.16
23433;BME280;41331;45.412;10.992;2023-04-25T07:49:34;100146.66;;;11.96;94.65
23433;BME280;41331;45.412;10.992;2023-04-25T07:52:02;100135.06;;;11.99;96.39
23433;BME280;41331;45.412;10.992;2023-04-25T07:54:30;100125.59;;;12.08;95.87
23433;BME280;41331;45.412;10.992;2023-04-25T07:57:03;100123.28;;;11.70;95.24
23433;BME280;41331;45.412;10.992;2023-04-25T07:59:30;100114.50;;;11.64;94.97
23433;BME280;41331;45.412;10.992;2023-04-25T08:02:00;100118.88;;;11.41;94.94
23433;BME280;41331;45.412;10.992;2023-04-25T08:04:28;100117.16;;;11.49;94.15
23433;BME280;41331;45.412;10.992;2023-04-25T08:07:01;100127.47;;;11.67;93.69
23433;BME280;41331;45.412;10.992;2023-04-25T08:09:34;100135.06;;;11.74;90.84
23433;BME280;41331;45.412;10.992;2023-04-25T08:12:06;100142.47;;;11.86;92.40
23433;BME280;41331;45.412;10.992;2023-04-25T08:14:34;100129.97;;;11.73;90.77
23433;BME280;41331;45.412;10.992;2023-04-25T08:17:05;100136.72;;;12.43;90.09
23433;BME280;41331;45.412;10.992;2023-04-25T08:19:35;100132.53;;;13.06;87.50
23433;BME280;41331;45.412;10.992;2023-04-25T08:22:02;100140.81;;;13.25;87.66
23433;BME280;41331;45.412;10.992;2023-04-25T08:24:41;100137.72;;;13.11;88.75
23433;BME280;41331;45.412;10.992;2023-04-25T08:27:08;100141.50;;;12.90;85.62
23433;BME280;41331;45.412;10.992;2023-04-25T08:29:36;100146.34;;;13.95;85.67
23433;BME280;41331;45.412;10.992;2023-04-25T08:32:03;100154.53;;;14.50;80.06
23433;BME280;41331;45.412;10.992;2023-04-25T08:34:32;100159.94;;;14.46;79.65
23433;BME280;41331;45.412;10.992;2023-04-25T08:37:02;100162.53;;;15.24;76.97
23433;BME280;41331;45.412;10.992;2023-04-25T08:39:39;100170.22;;;15.38;73.95
23433;BME280;41331;45.412;10.992;2023-04-25T08:42:26;100184.78;;;15.91;74.54
23433;BME280;41331;45.412;10.992;2023-04-25T08:44:54;100174.69;;;16.59;72.33
23433;BME280;41331;45.412;10.992;2023-04-25T08:47:25;100182.66;;;16.08;67.93
23433;BME280;41331;45.412;10.992;2023-04-25T08:49:56;100178.06;;;16.15;68.99
23433;BME280;41331;45.412;10.992;2023-04-25T08:52:27;100181.31;;;16.24;69.29
23433;BME280;41331;45.412;10.992;2023-04-25T08:54:55;100178.00;;;15.82;67.02
23433;BME280;41331;45.412;10.992;2023-04-25T08:57:24;100186.91;;;15.52;67.77
23433;BME280;41331;45.412;10.992;2023-04-25T08:59:52;100175.34;;;15.16;67.44
23433;BME280;41331;45.412;10.992;2023-04-25T09:02:21;100180.38;;;16.13;69.51
23433;BME280;41331;45.412;10.992;2023-04-25T09:04:50;100177.66;;;16.77;65.96
23433;BME280;41331;45.412;10.992;2023-04-25T09:07:18;100167.63;;;16.28;62.88
23433;BME280;41331;45.412;10.992;2023-04-25T09:09:45;100172.69;;;15.69;65.42
23433;BME280;41331;45.412;10.992;2023-04-25T09:12:19;100169.84;;;16.49;65.56
23433;BME280;41331;45.412;10.992;2023-04-25T09:18:10;100178.69;;;16.31;62.53
23433;BME280;41331;45.412;10.992;2023-04-25T09:20:42;100175.72;;;16.47;63.35
23433;BME280;41331;45.412;10.992;2023-04-25T09:23:14;100176.72;;;16.66;64.91
23433;BME280;41331;45.412;10.992;2023-04-25T09:25:41;100177.41;;;16.25;62.56
23433;BME280;41331;45.412;10.992;2023-04-25T09:28:10;100181.50;;;16.09;64.64
23433;BME280;41331;45.412;10.992;2023-04-25T09:30:38;100180.28;;;16.36;65.31
23433;BME280;41331;45.412;10.992;2023-04-25T09:33:29;100176.66;;;16.96;61.82
23433;BME280;41331;45.412;10.992;2023-04-25T09:36:05;100179.66;;;16.50;60.44
23433;BME280;41331;45.412;10.992;2023-04-25T09:38:47;100182.00;;;16.81;63.07
23433;BME280;41331;45.412;10.992;2023-04-25T09:41:25;100175.56;;;18.00;64.51
23433;BME280;41331;45.412;10.992;2023-04-25T09:43:58;100172.69;;;17.82;58.31
23433;BME280;41331;45.412;10.992;2023-04-25T09:46:34;100175.50;;;17.89;59.64
23433;BME280;41331;45.412;10.992;2023-04-25T09:49:06;100179.38;;;17.77;59.27
23433;BME280;41331;45.412;10.992;2023-04-25T09:51:55;100180.34;;;18.17;59.52
23433;BME280;41331;45.412;10.992;2023-04-25T09:54:26;100181.41;;;17.95;60.29
23433;BME280;41331;45.412;10.992;2023-04-25T09:57:19;100170.63;;;18.34;59.78
23433;BME280;41331;45.412;10.992;2023-04-25T10:02:16;100183.84;;;18.07;59.48
23433;BME280;41331;45.412;10.992;2023-04-25T10:04:45;100183.41;;;18.92;60.74
23433;BME280;41331;45.412;10.992;2023-04-25T10:07:22;100191.38;;;18.14;60.45
23433;BME280;41331;45.412;10.992;2023-04-25T10:09:59;100187.06;;;18.20;62.38
23433;BME280;41331;45.412;10.992;2023-04-25T10:12:29;100181.06;;;19.01;59.14
23433;BME280;41331;45.412;10.992;2023-04-25T10:14:58;100180.63;;;18.81;57.35
23433;BME280;41331;45.412;10.992;2023-04-25T10:17:28;100184.28;;;18.16;61.29
23433;BME280;41331;45.412;10.992;2023-04-25T10:19:56;100186.25;;;18.16;60.81
23433;BME280;41331;45.412;10.992;2023-04-25T10:22:26;100179.44;;;17.88;60.29
23433;BME280;41331;45.412;10.992;2023-04-25T10:24:56;100181.34;;;17.80;62.45
23433;BME280;41331;45.412;10.992;2023-04-25T10:27:23;100183.78;;;17.96;62.68
23433;BME280;41331;45.412;10.992;2023-04-25T10:30:02;100179.50;;;17.47;61.90
23433;BME280;41331;45.412;10.992;2023-04-25T10:32:34;100174.97;;;18.38;60.38
23433;BME280;41331;45.412;10.992;2023-04-25T10:35:18;100176.41;;;18.11;58.33
23433;BME280;41331;45.412;10.992;2023-04-25T10:40:25;100181.47;;;18.02;58.33
23433;BME280;41331;45.412;10.992;2023-04-25T10:42:53;100183.78;;;17.96;60.12
23433;BME280;41331;45.412;10.992;2023-04-25T10:45:23;100196.41;;;17.97;59.20
23433;BME280;41331;45.412;10.992;2023-04-25T10:47:50;100187.19;;;17.75;59.57
23433;BME280;41331;45.412;10.992;2023-04-25T10:50:17;100190.63;;;17.65;60.64
23433;BME280;41331;45.412;10.992;2023-04-25T10:52:44;100186.94;;;17.95;60.13
23433;BME280;41331;45.412;10.992;2023-04-25T10:55:12;100187.78;;;19.04;59.43
23433;BME280;41331;45.412;10.992;2023-04-25T11:00:10;100196.00;;;17.99;60.39
23433;BME280;41331;45.412;10.992;2023-04-25T11:02:42;100193.56;;;17.83;63.27
23433;BME280;41331;45.412;10.992;2023-04-25T11:05:27;100188.69;;;17.69;61.82
23433;BME280;41331;45.412;10.992;2023-04-25T11:07:56;100201.13;;;18.00;61.33
23433;BME280;41331;45.412;10.992;2023-04-25T11:10:34;100198.75;;;17.47;60.85
23433;BME280;41331;45.412;10.992;2023-04-25T11:13:04;100194.88;;;17.55;61.80
23433;BME280;41331;45.412;10.992;2023-04-25T11:15:31;100195.88;;;17.33;61.40
23433;BME280;41331;45.412;10.992;2023-04-25T11:17:59;100192.19;;;17.63;63.69
23433;BME280;41331;45.412;10.992;2023-04-25T11:20:26;100195.16;;;17.40;61.19
23433;BME280;41331;45.412;10.992;2023-04-25T11:22:57;100188.38;;;17.74;60.79
23433;BME280;41331;45.412;10.992;2023-04-25T11:25:25;100181.81;;;18.73;59.77
23433;BME280;41331;45.412;10.992;2023-04-25T11:27:56;100177.72;;;18.38;58.98
23433;BME280;41331;45.412;10.992;2023-04-25T11:30:25;100184.97;;;18.75;55.68
23433;BME280;41331;45.412;10.992;2023-04-25T11:32:52;100182.97;;;17.92;57.31
23433;BME280;41331;45.412;10.992;2023-04-25T11:35:20;100186.13;;;18.71;58.52
23433;BME280;41331;45.412;10.992;2023-04-25T11:37:50;100193.56;;;18.67;57.72
23433;BME280;41331;45.412;10.992;2023-04-25T11:40:17;100192.31;;;18.43;57.29
23433;BME280;41331;45.412;10.992;2023-04-25T11:42:45;100183.25;;;18.46;58.99
23433;BME280;41331;45.412;10.992;2023-04-25T11:45:13;100193.75;;;18.22;58.95
23433;BME280;41331;45.412;10.992;2023-04-25T11:47:41;100179.28;;;18.40;57.59
23433;BME280;41331;45.412;10.992;2023-04-25T11:50:08;100189.81;;;18.20;60.41
23433;BME280;41331;45.412;10.992;2023-04-25T11:55:07;100184.13;;;18.64;58.11
23433;BME280;41331;45.412;10.992;2023-04-25T11:57:40;100189.16;;;18.44;57.87
23433;BME280;41331;45.412;10.992;2023-04-25T12:00:09;100192.69;;;17.75;61.14
23433;BME280;41331;45.412;10.992;2023-04-25T12:02:45;100191.84;;;17.71;62.17
23433;BME280;41331;45.412;10.992;2023-04-25T12:05:14;100184.38;;;17.72;63.45
23433;BME280;41331;45.412;10.992;2023-04-25T12:08:20;100188.00;;;17.79;62.76
23433;BME280;41331;45.412;10.992;2023-04-25T12:10:46;100195.69;;;17.59;64.43
23433;BME280;41331;45.412;10.992;2023-04-25T12:15:46;100180.13;;;17.74;62.49
23433;BME280;41331;45.412;10.992;2023-04-25T12:18:14;100189.88;;;17.20;61.05
23433;BME280;41331;45.412;10.992;2023-04-25T12:20:41;100187.31;;;17.01;60.70
23433;BME280;41331;45.412;10.992;2023-04-25T12:23:09;100184.69;;;16.74;61.14
23433;BME280;41331;45.412;10.992;2023-04-25T12:25:42;100184.50;;;16.60;61.15
23433;BME280;41331;45.412;10.992;2023-04-25T12:30:57;100198.06;;;16.76;64.26
23433;BME280;41331;45.412;10.992;2023-04-25T12:33:25;100197.50;;;16.63;64.34
23433;BME280;41331;45.412;10.992;2023-04-25T12:35:53;100206.28;;;16.46;66.24
23433;BME280;41331;45.412;10.992;2023-04-25T12:38:28;100197.66;;;16.44;65.91
23433;BME280;41331;45.412;10.992;2023-04-25T12:40:58;100210.97;;;16.42;66.16
23433;BME280;41331;45.412;10.992;2023-04-25T12:43:25;100225.91;;;16.44;68.14
23433;BME280;41331;45.412;10.992;2023-04-25T12:45:53;100225.97;;;16.48;69.94
23433;BME280;41331;45.412;10.992;2023-04-25T12:48:21;100217.75;;;16.21;69.84
23433;BME280;41331;45.412;10.992;2023-04-25T12:50:48;100223.56;;;16.16;72.41
23433;BME280;41331;45.412;10.992;2023-04-25T12:53:19;100225.69;;;16.00;73.12
23433;BME280;41331;45.412;10.992;2023-04-25T12:55:47;100230.13;;;15.59;75.08
23433;BME280;41331;45.412;10.992;2023-04-25T12:58:15;100238.66;;;15.53;78.75
23433;BME280;41331;45.412;10.992;2023-04-25T13:00:43;100243.81;;;15.36;82.71
23433;BME280;41331;45.412;10.992;2023-04-25T13:03:11;100242.84;;;15.24;84.78
23433;BME280;41331;45.412;10.992;2023-04-25T13:05:39;100249.88;;;15.02;88.35
23433;BME280;41331;45.412;10.992;2023-04-25T13:08:06;100250.03;;;14.90;90.42
23433;BME280;41331;45.412;10.992;2023-04-25T13:10:34;100261.94;;;14.79;94.60
23433;BME280;41331;45.412;10.992;2023-04-25T13:13:03;100261.84;;;14.75;96.17
23433;BME280;41331;45.412;10.992;2023-04-25T13:15:30;100271.97;;;14.71;97.04
23433;BME280;41331;45.412;10.992;2023-04-25T13:17:57;100281.97;;;14.63;97.57